createdAt,value
2023-05-14T00:00:02.832Z,100697.71
2023-05-14T00:05:29.932Z,100692.17
2023-05-14T00:10:37.224Z,100687.61
2023-05-14T00:15:44.725Z,100684.17
2023-05-14T00:20:54.984Z,100678.41
2023-05-14T00:26:02.096Z,100678.14
2023-05-14T00:31:09.221Z,100673.55
2023-05-14T00:36:16.347Z,100675.42
2023-05-14T00:41:23.459Z,100672.77
2023-05-14T00:46:30.743Z,100673.05
2023-05-14T00:51:38.099Z,100670.27
2023-05-14T00:56:46.377Z,100675.61
2023-05-14T01:01:54.050Z,100673.77
2023-05-14T01:07:10.527Z,100668.88
2023-05-14T01:12:21.550Z,100663.44
2023-05-14T01:17:34.050Z,100660.27
2023-05-14T01:22:41.273Z,100658.92
2023-05-14T01:27:56.921Z,100655.67
2023-05-14T01:33:12.079Z,100651.73
2023-05-14T01:38:21.328Z,100655.36
2023-05-14T01:43:29.459Z,100654.67
2023-05-14T01:48:37.821Z,100653.48
2023-05-14T01:53:44.848Z,100648.76
2023-05-14T01:58:54.221Z,100646.85
2023-05-14T02:04:02.439Z,100639.41
2023-05-14T02:09:09.630Z,100632.15
2023-05-14T02:14:16.674Z,100634.31
2023-05-14T02:19:23.717Z,100632.73
2023-05-14T02:24:30.827Z,100632.92
2023-05-14T02:29:38.064Z,100636.90
2023-05-14T02:34:45.069Z,100639.35
2023-05-14T02:39:52.420Z,100635.15
2023-05-14T02:44:59.785Z,100630.14
2023-05-14T02:50:08.131Z,100627.50
2023-05-14T02:55:15.470Z,100625.33
2023-05-14T03:00:23.078Z,100622.42
2023-05-14T03:05:30.600Z,100620.86
2023-05-14T03:10:37.728Z,100615.55
2023-05-14T03:15:44.837Z,100614.08
2023-05-14T03:20:52.104Z,100616.23
2023-05-14T03:25:59.137Z,100617.52
2023-05-14T03:31:06.353Z,100624.61
2023-05-14T03:36:13.698Z,100626.23
2023-05-14T03:41:21.980Z,100629.92
2023-05-14T03:46:28.990Z,100629.14
2023-05-14T03:51:36.559Z,100629.20
2023-05-14T03:56:44.901Z,100626.88
2023-05-14T04:01:53.658Z,100624.33
2023-05-14T04:07:00.667Z,100620.94
2023-05-14T04:12:10.617Z,100620.91
2023-05-14T04:17:17.575Z,100622.27
2023-05-14T04:22:24.827Z,100613.30
2023-05-14T04:27:31.839Z,100616.61
2023-05-14T04:32:39.479Z,100616.48
2023-05-14T04:37:46.377Z,100618.16
2023-05-14T04:42:53.364Z,100611.06
2023-05-14T04:48:00.497Z,100607.81
2023-05-14T04:53:07.550Z,100611.27
2023-05-14T04:58:14.521Z,100603.68
2023-05-14T05:03:21.549Z,100598.58
2023-05-14T05:08:28.978Z,100602.81
2023-05-14T05:13:35.936Z,100594.55
2023-05-14T05:18:44.645Z,100590.80
2023-05-14T05:23:51.748Z,100586.60
2023-05-14T05:28:58.881Z,100581.36
2023-05-14T05:34:06.054Z,100577.56
2023-05-14T05:39:13.027Z,100573.23
2023-05-14T05:44:19.999Z,100567.82
2023-05-14T05:49:27.168Z,100565.31
2023-05-14T05:54:34.310Z,100567.15
2023-05-14T05:59:41.291Z,100568.15
2023-05-14T06:04:48.340Z,100562.64
2023-05-14T06:09:55.453Z,100567.14
2023-05-14T06:15:02.435Z,100566.13
2023-05-14T06:20:11.298Z,100564.29
2023-05-14T06:25:18.562Z,100561.38
2023-05-14T06:30:25.985Z,100557.66
2023-05-14T06:35:34.743Z,100555.07
2023-05-14T06:40:45.720Z,100556.09
2023-05-14T06:45:51.200Z,100553.34
2023-05-14T06:50:58.336Z,100553.66
2023-05-14T06:56:05.989Z,100547.07
2023-05-14T07:01:13.140Z,100540.89
2023-05-14T07:06:21.164Z,100529.59
2023-05-14T07:11:28.070Z,100525.32
2023-05-14T07:16:35.127Z,100516.05
2023-05-14T07:21:42.157Z,100508.38
2023-05-14T07:26:49.218Z,100506.73
2023-05-14T07:31:56.378Z,100506.33
2023-05-14T07:37:04.052Z,100502.55
2023-05-14T07:42:12.550Z,100505.14
2023-05-14T07:47:24.128Z,100504.34
2023-05-14T07:52:31.169Z,100496.31
2023-05-14T07:57:38.377Z,100492.02
2023-05-14T08:02:45.578Z,100489.44
2023-05-14T08:07:52.578Z,100483.20
2023-05-14T08:12:59.539Z,100479.05
2023-05-14T08:18:07.430Z,100477.10
2023-05-14T08:23:14.458Z,100474.91
2023-05-14T08:28:21.673Z,100470.00
2023-05-14T08:33:29.053Z,100463.11
2023-05-14T08:38:36.123Z,100459.87
2023-05-14T08:43:59.021Z,100457.11
2023-05-14T08:49:16.890Z,100451.86
2023-05-14T08:54:26.302Z,100444.32
2023-05-14T08:59:33.374Z,100435.32
2023-05-14T09:04:41.102Z,100435.29
2023-05-14T09:09:49.252Z,100428.09
2023-05-14T09:14:56.260Z,100422.80
2023-05-14T09:20:05.116Z,100416.36
2023-05-14T09:25:13.385Z,100416.65
2023-05-14T09:30:20.668Z,100409.65
2023-05-14T09:35:27.795Z,100403.40
2023-05-14T09:40:34.984Z,100399.57
2023-05-14T09:45:43.650Z,100392.79
2023-05-14T09:50:52.210Z,100376.86
2023-05-14T09:55:59.224Z,100371.88
2023-05-14T10:01:07.390Z,100367.89
2023-05-14T10:06:19.148Z,100363.85
2023-05-14T10:11:29.767Z,100355.12
2023-05-14T10:16:39.239Z,100350.23
2023-05-14T10:21:49.978Z,100342.71
2023-05-14T10:26:58.806Z,100345.55
2023-05-14T10:32:10.158Z,100341.95
2023-05-14T10:37:18.518Z,100341.73
2023-05-14T10:42:28.335Z,100333.95
2023-05-14T10:47:36.888Z,100324.77
2023-05-14T10:52:45.749Z,100319.77
2023-05-14T10:57:53.552Z,100315.10
2023-05-14T11:03:01.785Z,100311.95
2023-05-14T11:08:10.329Z,100305.23
2023-05-14T11:13:18.923Z,100300.52
2023-05-14T11:18:33.658Z,100295.61
2023-05-14T11:23:41.134Z,100288.00
2023-05-14T11:28:48.108Z,100277.63
2023-05-14T11:33:56.357Z,100279.65
2023-05-14T11:39:03.210Z,100277.75
2023-05-14T11:44:11.792Z,100270.71
2023-05-14T11:49:18.794Z,100270.40
2023-05-14T11:54:28.784Z,100264.18
2023-05-14T11:59:35.926Z,100255.23
2023-05-14T12:04:43.943Z,100252.95
2023-05-14T12:09:51.560Z,100245.97
2023-05-14T12:15:00.696Z,100231.90
2023-05-14T12:20:12.618Z,100233.93
2023-05-14T12:25:19.844Z,100229.66
2023-05-14T12:30:26.855Z,100227.02
2023-05-14T12:35:33.949Z,100221.23
2023-05-14T12:40:41.000Z,100217.36
2023-05-14T12:45:48.034Z,100212.50
2023-05-14T12:50:55.078Z,100206.88
2023-05-14T12:56:02.431Z,100202.03
2023-05-14T13:01:09.448Z,100207.79
2023-05-14T13:06:16.529Z,100201.87
2023-05-14T13:11:23.528Z,100194.47
2023-05-14T13:16:31.387Z,100189.56
2023-05-14T13:21:38.639Z,100180.16
2023-05-14T13:26:45.660Z,100179.40
2023-05-14T13:31:53.080Z,100173.36
2023-05-14T13:37:00.130Z,100169.95
2023-05-14T13:42:07.683Z,100163.82
2023-05-14T13:47:14.715Z,100162.58
2023-05-14T13:52:21.768Z,100154.62
2023-05-14T13:57:28.695Z,100147.84
2023-05-14T14:02:35.848Z,100146.45
2023-05-14T14:07:42.865Z,100147.61
2023-05-14T14:12:50.221Z,100143.80
2023-05-14T14:17:57.282Z,100141.17
2023-05-14T14:23:04.137Z,100139.39
2023-05-14T14:28:11.250Z,100134.94
2023-05-14T14:33:18.193Z,100133.98
2023-05-14T14:38:25.515Z,100135.23
2023-05-14T14:43:32.572Z,100132.49
2023-05-14T14:48:40.050Z,100129.56
2023-05-14T14:53:46.939Z,100129.42
2023-05-14T14:58:53.967Z,100131.57
2023-05-14T15:04:00.838Z,100127.14
2023-05-14T15:09:09.253Z,100122.02
2023-05-14T15:14:16.195Z,100116.91
2023-05-14T15:19:23.161Z,100110.94
2023-05-14T15:24:30.232Z,100103.18
2023-05-14T15:29:37.247Z,100100.19
2023-05-14T15:34:44.156Z,100093.11
2023-05-14T15:39:51.122Z,100091.39
2023-05-14T15:44:58.069Z,100089.48
2023-05-14T15:50:05.582Z,100080.19
2023-05-14T15:55:13.267Z,100066.81
2023-05-14T16:00:21.460Z,100059.80
2023-05-14T16:05:28.560Z,100064.84
2023-05-14T16:10:35.510Z,100071.23
2023-05-14T16:15:43.672Z,100064.95
2023-05-14T16:20:50.598Z,100062.41
2023-05-14T16:25:57.957Z,100059.45
2023-05-14T16:31:05.057Z,100053.52
2023-05-14T16:36:12.246Z,100050.21
2023-05-14T16:41:19.354Z,100047.73
2023-05-14T16:46:28.225Z,100047.39
2023-05-14T16:51:38.381Z,100049.30
2023-05-14T16:56:48.301Z,100047.94
2023-05-14T17:01:57.683Z,100046.80
2023-05-14T17:07:04.975Z,100057.34
2023-05-14T17:12:13.680Z,100051.26
2023-05-14T17:17:20.952Z,100052.94
2023-05-14T17:22:28.566Z,100051.52
2023-05-14T17:27:36.322Z,100057.98
2023-05-14T17:32:43.351Z,100053.74
2023-05-14T17:37:50.449Z,100046.42
2023-05-14T17:42:57.498Z,100045.75
2023-05-14T17:48:04.580Z,100038.95
2023-05-14T17:53:11.533Z,100038.13
2023-05-14T17:58:18.796Z,100042.88
2023-05-14T18:03:25.918Z,100039.17
2023-05-14T18:08:33.154Z,100039.64
2023-05-14T18:13:40.155Z,100033.30
2023-05-14T18:18:49.736Z,100030.85
2023-05-14T18:23:57.139Z,100030.73
2023-05-14T18:29:04.260Z,100028.86
2023-05-14T18:34:11.951Z,100023.09
2023-05-14T18:39:19.931Z,100015.56
2023-05-14T18:44:27.169Z,100010.86
2023-05-14T18:49:34.522Z,100013.59
2023-05-14T18:54:41.522Z,100019.77
2023-05-14T18:59:48.986Z,100019.67
2023-05-14T19:04:56.145Z,100018.36
2023-05-14T19:10:03.793Z,100010.73
2023-05-14T19:15:12.189Z,100012.17
2023-05-14T19:20:19.170Z,100013.23
2023-05-14T19:25:26.436Z,100013.11
2023-05-14T19:30:33.679Z,100002.02
2023-05-14T19:35:40.751Z,99993.89
2023-05-14T19:40:47.686Z,99997.46
2023-05-14T19:45:54.808Z,99990.50
2023-05-14T19:51:01.938Z,100000.34
2023-05-14T19:56:10.439Z,100012.92
2023-05-14T20:01:17.569Z,99982.63
2023-05-14T20:06:24.733Z,99968.38
2023-05-14T20:11:31.823Z,99961.38
2023-05-14T20:16:39.560Z,99958.19
2023-05-14T20:21:46.623Z,99950.78
2023-05-14T20:26:53.686Z,99946.13
2023-05-14T20:32:00.669Z,99945.77
2023-05-14T20:37:08.142Z,99964.68
2023-05-14T20:42:15.157Z,99978.27
2023-05-14T20:47:24.964Z,99955.38
2023-05-14T20:52:31.945Z,99940.52
2023-05-14T20:57:40.007Z,99929.64
2023-05-14T21:02:46.935Z,99930.96
2023-05-14T21:07:54.043Z,99934.29
2023-05-14T21:13:01.045Z,99931.88
2023-05-14T21:18:08.094Z,99916.67
2023-05-14T21:23:15.069Z,99915.74
2023-05-14T21:28:22.281Z,99933.20
2023-05-14T21:33:29.241Z,99967.92
2023-05-14T21:38:36.381Z,99978.08
2023-05-14T21:43:45.187Z,99971.77
2023-05-14T21:48:52.360Z,99962.92
2023-05-14T21:53:59.376Z,99956.25
2023-05-14T21:59:06.459Z,99950.22
2023-05-14T22:04:13.406Z,99942.40
2023-05-14T22:09:20.359Z,99932.85
2023-05-14T22:14:27.688Z,99923.77
2023-05-14T22:19:34.698Z,99919.30
2023-05-14T22:24:41.645Z,99912.74
2023-05-14T22:29:50.048Z,99897.63
2023-05-14T22:34:56.962Z,99886.91
2023-05-14T22:40:11.789Z,99876.26
2023-05-14T22:45:18.809Z,99870.36
2023-05-14T22:50:25.674Z,99865.63
2023-05-14T22:55:33.258Z,99859.04
2023-05-14T23:00:40.406Z,99855.66
2023-05-14T23:05:47.412Z,99849.02
2023-05-14T23:10:54.406Z,99843.63
2023-05-14T23:16:01.351Z,99836.33
2023-05-14T23:21:08.499Z,99825.65
2023-05-14T23:26:15.701Z,99824.89
2023-05-14T23:31:23.777Z,99816.64
2023-05-14T23:36:31.523Z,99808.81
2023-05-14T23:41:38.573Z,99805.41
2023-05-14T23:46:45.640Z,99795.73
2023-05-14T23:51:52.876Z,99789.92
2023-05-14T23:56:59.891Z,99776.85
